createdAt,value
2018-10-21T00:00:34.551Z,10.10
2018-10-21T00:01:38.127Z,10.10
2018-10-21T00:02:41.746Z,10.10
2018-10-21T00:03:45.330Z,10.10
2018-10-21T00:04:48.984Z,10.10
2018-10-21T00:05:52.539Z,10.10
2018-10-21T00:06:56.174Z,10.10
2018-10-21T00:07:59.749Z,10.20
2018-10-21T00:09:04.464Z,10.20
2018-10-21T00:10:09.150Z,10.20
2018-10-21T00:11:12.759Z,10.20
2018-10-21T00:12:16.366Z,10.20
2018-10-21T00:13:19.959Z,10.20
2018-10-21T00:14:23.535Z,10.20
2018-10-21T00:15:27.282Z,10.20
2018-10-21T00:16:30.822Z,10.20
2018-10-21T00:17:34.486Z,10.30
2018-10-21T00:18:38.087Z,10.30
2018-10-21T00:19:41.703Z,10.30
2018-10-21T00:20:45.400Z,10.30
2018-10-21T00:21:48.965Z,10.30
2018-10-21T00:22:52.770Z,10.30
2018-10-21T00:23:56.435Z,10.30
2018-10-21T00:25:00.043Z,10.30
2018-10-21T00:26:03.822Z,10.30
2018-10-21T00:27:07.563Z,10.40
2018-10-21T00:28:11.087Z,10.30
2018-10-21T00:29:14.751Z,10.40
2018-10-21T00:30:18.430Z,10.40
2018-10-21T00:31:21.967Z,10.40
2018-10-21T00:32:30.879Z,10.40
2018-10-21T00:33:34.517Z,10.40
2018-10-21T00:34:38.103Z,10.40
2018-10-21T00:35:41.775Z,10.40
2018-10-21T00:36:45.405Z,10.50
2018-10-21T00:37:48.978Z,10.50
2018-10-21T00:38:52.574Z,10.50
2018-10-21T00:39:56.147Z,10.50
2018-10-21T00:40:59.752Z,10.60
2018-10-21T00:42:04.039Z,10.60
2018-10-21T00:43:07.584Z,10.60
2018-10-21T00:44:11.286Z,10.60
2018-10-21T00:45:14.948Z,10.60
2018-10-21T00:46:18.490Z,10.70
2018-10-21T00:47:22.122Z,10.70
2018-10-21T00:48:25.717Z,10.70
2018-10-21T00:49:29.286Z,10.70
2018-10-21T00:50:32.870Z,10.70
2018-10-21T00:51:36.459Z,10.70
2018-10-21T00:52:40.234Z,10.80
2018-10-21T00:53:43.822Z,10.80
2018-10-21T00:54:47.462Z,10.80
2018-10-21T00:55:51.023Z,10.80
2018-10-21T00:56:54.650Z,10.80
2018-10-21T00:57:58.183Z,10.80
2018-10-21T00:59:01.778Z,10.80
2018-10-21T01:00:07.547Z,10.70
2018-10-21T01:01:11.154Z,10.80
2018-10-21T01:02:14.755Z,10.70
2018-10-21T01:03:18.360Z,10.80
2018-10-21T01:04:21.944Z,10.80
2018-10-21T01:05:25.502Z,10.80
2018-10-21T01:06:29.106Z,10.80
2018-10-21T01:07:32.692Z,10.80
2018-10-21T01:08:36.278Z,10.80
2018-10-21T01:09:39.873Z,10.80
2018-10-21T01:10:43.695Z,10.70
2018-10-21T01:11:47.274Z,10.70
2018-10-21T01:12:50.849Z,10.70
2018-10-21T01:13:54.421Z,10.70
2018-10-21T01:14:58.003Z,10.70
2018-10-21T01:16:01.947Z,10.70
2018-10-21T01:17:05.774Z,10.70
2018-10-21T01:18:09.359Z,10.70
2018-10-21T01:19:13.007Z,10.70
2018-10-21T01:20:23.230Z,10.70
2018-10-21T01:21:26.843Z,10.70
2018-10-21T01:22:30.431Z,10.70
2018-10-21T01:23:34.125Z,10.70
2018-10-21T01:24:37.663Z,10.70
2018-10-21T01:25:41.228Z,10.60
2018-10-21T01:26:44.898Z,10.70
2018-10-21T01:27:48.435Z,10.60
2018-10-21T01:28:52.015Z,10.60
2018-10-21T01:29:55.669Z,10.60
2018-10-21T01:30:59.219Z,10.60
2018-10-21T01:32:02.790Z,10.60
2018-10-21T01:33:06.507Z,10.60
2018-10-21T01:34:10.083Z,10.60
2018-10-21T01:35:13.655Z,10.60
2018-10-21T01:36:17.475Z,10.60
2018-10-21T01:37:20.911Z,10.60
2018-10-21T01:38:24.552Z,10.60
2018-10-21T01:40:34.076Z,10.60
2018-10-21T01:41:37.671Z,10.60
2018-10-21T01:42:41.259Z,10.60
2018-10-21T01:43:44.842Z,10.60
2018-10-21T01:44:48.419Z,10.60
2018-10-21T01:45:52.055Z,10.60
2018-10-21T01:46:55.676Z,10.50
2018-10-21T01:48:00.369Z,10.50
2018-10-21T01:49:03.954Z,10.50
2018-10-21T01:50:07.544Z,10.50
2018-10-21T01:51:11.178Z,10.50
2018-10-21T01:52:14.718Z,10.50
2018-10-21T01:53:19.063Z,10.50
2018-10-21T01:54:25.883Z,10.50
2018-10-21T01:55:29.458Z,10.50
2018-10-21T01:56:33.046Z,10.50
2018-10-21T01:57:36.643Z,10.50
2018-10-21T01:58:40.231Z,10.50
2018-10-21T01:59:43.814Z,10.50
2018-10-21T02:00:47.415Z,10.50
2018-10-21T02:01:51.407Z,10.40
2018-10-21T02:02:55.700Z,10.40
2018-10-21T02:03:59.227Z,10.40
2018-10-21T02:05:02.905Z,10.40
2018-10-21T02:06:06.487Z,10.40
2018-10-21T02:07:10.074Z,10.40
2018-10-21T02:08:13.666Z,10.40
2018-10-21T02:09:17.380Z,10.40
2018-10-21T02:10:20.909Z,10.40
2018-10-21T02:11:24.467Z,10.40
2018-10-21T02:12:28.059Z,10.30
2018-10-21T02:13:31.643Z,10.30
2018-10-21T02:14:35.227Z,10.30
2018-10-21T02:15:38.823Z,10.30
2018-10-21T02:16:42.452Z,10.20
2018-10-21T02:17:46.031Z,10.20
2018-10-21T02:18:49.634Z,10.20
2018-10-21T02:19:53.223Z,10.20
2018-10-21T02:20:56.849Z,10.20
2018-10-21T02:22:00.659Z,10.10
2018-10-21T02:23:04.283Z,10.10
2018-10-21T02:24:07.891Z,10.10
2018-10-21T02:25:11.586Z,10.10
2018-10-21T02:26:15.209Z,10.10
2018-10-21T02:27:18.825Z,10.10
2018-10-21T02:28:22.327Z,10.00
2018-10-21T02:29:25.912Z,10.10
2018-10-21T02:30:30.616Z,10.10
2018-10-21T02:31:34.186Z,10.10
2018-10-21T02:32:37.789Z,10.10
2018-10-21T02:33:41.537Z,10.10
2018-10-21T02:34:44.991Z,10.20
2018-10-21T02:35:48.580Z,10.20
2018-10-21T02:36:52.172Z,10.20
2018-10-21T02:37:56.362Z,10.20
2018-10-21T02:38:59.998Z,10.20
2018-10-21T02:40:03.644Z,10.30
2018-10-21T02:41:19.525Z,10.30
2018-10-21T02:42:23.140Z,10.30
2018-10-21T02:43:26.751Z,10.40
2018-10-21T02:44:30.315Z,10.40
2018-10-21T02:45:33.891Z,10.40
2018-10-21T02:46:38.243Z,10.50
2018-10-21T02:47:41.804Z,10.50
2018-10-21T02:48:45.400Z,10.50
2018-10-21T02:49:48.994Z,10.50
2018-10-21T02:50:52.570Z,10.50
2018-10-21T02:52:01.506Z,10.50
2018-10-21T02:53:05.209Z,10.50
2018-10-21T02:54:09.208Z,10.50
2018-10-21T02:55:12.799Z,10.50
2018-10-21T02:56:16.359Z,10.50
2018-10-21T02:57:20.010Z,10.50
2018-10-21T02:58:23.535Z,10.50
2018-10-21T02:59:27.468Z,10.50
2018-10-21T03:00:31.036Z,10.50
2018-10-21T03:01:34.654Z,10.50
2018-10-21T03:02:38.444Z,10.50
2018-10-21T03:03:42.034Z,10.50
2018-10-21T03:04:45.627Z,10.50
2018-10-21T03:05:49.237Z,10.40
2018-10-21T03:06:53.065Z,10.40
2018-10-21T03:07:56.675Z,10.40
2018-10-21T03:09:00.323Z,10.40
2018-10-21T03:10:03.863Z,10.40
2018-10-21T03:11:07.647Z,10.40
2018-10-21T03:12:11.272Z,10.40
2018-10-21T03:13:14.832Z,10.40
2018-10-21T03:14:18.418Z,10.40
2018-10-21T03:15:21.990Z,10.40
2018-10-21T03:16:25.589Z,10.40
2018-10-21T03:17:29.187Z,10.40
2018-10-21T03:18:32.968Z,10.40
2018-10-21T03:19:36.710Z,10.40
2018-10-21T03:20:40.274Z,10.40
2018-10-21T03:21:43.856Z,10.40
2018-10-21T03:22:47.591Z,10.40
2018-10-21T03:23:51.179Z,10.50
2018-10-21T03:24:54.767Z,10.50
2018-10-21T03:25:58.708Z,10.50
2018-10-21T03:27:02.371Z,10.50
2018-10-21T03:28:06.120Z,10.50
2018-10-21T03:29:09.841Z,10.60
2018-10-21T03:30:13.396Z,10.60
2018-10-21T03:31:16.982Z,10.60
2018-10-21T03:32:20.571Z,10.60
2018-10-21T03:33:24.351Z,10.60
2018-10-21T03:34:27.761Z,10.70
2018-10-21T03:35:31.539Z,10.70
2018-10-21T03:36:35.131Z,10.70
2018-10-21T03:37:38.769Z,10.80
2018-10-21T03:38:42.306Z,10.70
2018-10-21T03:39:45.907Z,10.80
2018-10-21T03:40:49.467Z,10.80
2018-10-21T03:41:53.139Z,10.80
2018-10-21T03:42:56.715Z,10.90
2018-10-21T03:44:00.286Z,10.80
2018-10-21T03:45:03.929Z,10.90
2018-10-21T03:46:07.521Z,10.90
2018-10-21T03:47:11.172Z,11.00
2018-10-21T03:48:14.752Z,11.00
2018-10-21T03:49:18.327Z,11.00
2018-10-21T03:50:21.907Z,11.00
2018-10-21T03:51:25.547Z,11.00
2018-10-21T03:52:29.107Z,11.00
2018-10-21T03:53:32.683Z,11.00
2018-10-21T03:54:39.222Z,11.10
2018-10-21T03:55:43.335Z,11.10
2018-10-21T03:56:46.979Z,11.10
2018-10-21T03:57:50.551Z,11.10
2018-10-21T03:58:54.152Z,11.10
2018-10-21T03:59:57.714Z,11.10
2018-10-21T04:01:01.300Z,11.10
2018-10-21T04:02:04.887Z,11.10
2018-10-21T04:03:08.780Z,11.20
2018-10-21T04:04:12.402Z,11.20
2018-10-21T04:05:16.010Z,11.20
2018-10-21T04:06:19.563Z,11.20
2018-10-21T04:07:23.150Z,11.20
2018-10-21T04:08:26.735Z,11.20
2018-10-21T04:09:30.306Z,11.20
2018-10-21T04:10:34.111Z,11.30
2018-10-21T04:11:37.688Z,11.30
2018-10-21T04:12:41.350Z,11.30
2018-10-21T04:13:44.899Z,11.30
2018-10-21T04:14:48.468Z,11.30
2018-10-21T04:15:52.056Z,11.30
2018-10-21T04:16:55.658Z,11.30
2018-10-21T04:17:59.231Z,11.30
2018-10-21T04:19:02.888Z,11.30
2018-10-21T04:20:07.260Z,11.30
2018-10-21T04:21:10.827Z,11.30
2018-10-21T04:22:14.554Z,11.20
2018-10-21T04:23:18.038Z,11.20
2018-10-21T04:24:21.608Z,11.20
2018-10-21T04:25:26.276Z,11.20
2018-10-21T04:26:29.823Z,11.20
2018-10-21T04:27:33.441Z,11.20
2018-10-21T04:28:37.019Z,11.20
2018-10-21T04:29:40.592Z,11.20
2018-10-21T04:30:44.198Z,11.20
2018-10-21T04:31:47.771Z,11.20
2018-10-21T04:32:55.760Z,11.20
2018-10-21T04:33:59.353Z,11.20
2018-10-21T04:35:02.906Z,11.20
2018-10-21T04:36:06.780Z,11.20
2018-10-21T04:37:21.888Z,11.20
2018-10-21T04:38:40.763Z,11.20
2018-10-21T04:39:55.846Z,11.20
2018-10-21T04:40:59.379Z,11.20
2018-10-21T04:42:02.956Z,11.20
2018-10-21T04:43:06.626Z,11.20
2018-10-21T04:44:10.176Z,11.20
2018-10-21T04:45:15.178Z,11.10
2018-10-21T04:46:18.758Z,11.10
2018-10-21T04:47:22.328Z,11.10
2018-10-21T04:48:26.012Z,11.10
2018-10-21T04:49:29.562Z,11.10
2018-10-21T04:50:33.138Z,11.00
2018-10-21T04:51:36.712Z,11.10
2018-10-21T04:52:40.324Z,11.10
2018-10-21T04:53:43.901Z,11.10
2018-10-21T04:54:47.489Z,11.10
2018-10-21T04:55:51.144Z,11.10
2018-10-21T04:56:54.731Z,11.10
2018-10-21T04:57:58.268Z,11.10
2018-10-21T04:59:01.831Z,11.20
2018-10-21T05:00:08.971Z,11.20
2018-10-21T05:01:12.543Z,11.20
2018-10-21T05:02:16.167Z,11.20
2018-10-21T05:03:19.727Z,11.20
2018-10-21T05:04:23.290Z,11.20
2018-10-21T05:05:26.892Z,11.20
2018-10-21T05:06:30.451Z,11.20
2018-10-21T05:07:34.124Z,11.30
2018-10-21T05:08:37.709Z,11.30
2018-10-21T05:09:41.272Z,11.30
2018-10-21T05:10:44.854Z,11.30
2018-10-21T05:11:48.419Z,11.30
2018-10-21T05:12:51.983Z,11.30
2018-10-21T05:13:55.564Z,11.30
2018-10-21T05:14:59.148Z,11.30
2018-10-21T05:16:02.788Z,11.30
2018-10-21T05:17:06.276Z,11.30
2018-10-21T05:18:09.847Z,11.40
2018-10-21T05:19:13.427Z,11.40
2018-10-21T05:20:17.015Z,11.40
2018-10-21T05:21:20.693Z,11.40
2018-10-21T05:22:24.235Z,11.40
2018-10-21T05:23:27.807Z,11.40
2018-10-21T05:24:31.381Z,11.40
2018-10-21T05:25:34.964Z,11.40
2018-10-21T05:26:38.997Z,11.40
2018-10-21T05:27:42.789Z,11.40
2018-10-21T05:28:46.350Z,11.40
2018-10-21T05:29:49.926Z,11.40
2018-10-21T05:30:53.620Z,11.50
2018-10-21T05:31:57.348Z,11.50
2018-10-21T05:33:00.920Z,11.50
2018-10-21T05:34:04.900Z,11.50
2018-10-21T05:35:09.978Z,11.50
2018-10-21T05:36:13.595Z,11.50
2018-10-21T05:37:17.162Z,11.50
2018-10-21T05:38:20.800Z,11.50
2018-10-21T05:39:24.335Z,11.50
2018-10-21T05:40:27.939Z,11.50
2018-10-21T05:41:31.490Z,11.50
2018-10-21T05:42:35.067Z,11.50
2018-10-21T05:43:38.655Z,11.50
2018-10-21T05:44:42.347Z,11.50
2018-10-21T05:45:45.932Z,11.50
2018-10-21T05:46:50.794Z,11.50
2018-10-21T05:47:54.291Z,11.40
2018-10-21T05:48:57.884Z,11.40
2018-10-21T05:50:01.523Z,11.30
2018-10-21T05:51:05.258Z,11.30
2018-10-21T05:52:08.894Z,11.30
2018-10-21T05:53:12.406Z,11.20
2018-10-21T05:54:17.011Z,11.20
2018-10-21T05:55:20.584Z,11.20
2018-10-21T05:56:24.163Z,11.20
2018-10-21T05:57:27.735Z,11.20
2018-10-21T05:58:31.408Z,11.10
2018-10-21T05:59:34.891Z,11.20
2018-10-21T06:00:38.655Z,11.20
2018-10-21T06:01:42.699Z,11.20
2018-10-21T06:02:46.357Z,11.20
2018-10-21T06:03:49.891Z,11.20
2018-10-21T06:04:54.143Z,11.10
2018-10-21T06:05:57.686Z,11.10
2018-10-21T06:07:01.259Z,11.10
2018-10-21T06:08:05.211Z,11.20
2018-10-21T06:09:10.085Z,11.20
2018-10-21T06:10:13.743Z,11.10
2018-10-21T06:11:17.335Z,11.10
2018-10-21T06:12:20.886Z,11.10
2018-10-21T06:13:24.463Z,11.00
2018-10-21T06:14:28.039Z,10.90
2018-10-21T06:15:31.627Z,10.90
2018-10-21T06:16:39.475Z,10.90
2018-10-21T06:17:43.056Z,10.80
2018-10-21T06:18:46.619Z,10.80
2018-10-21T06:19:55.410Z,10.70
2018-10-21T06:21:03.519Z,10.70
2018-10-21T06:22:07.232Z,10.70
2018-10-21T06:23:10.792Z,10.70
2018-10-21T06:24:14.364Z,10.80
2018-10-21T06:25:17.953Z,10.80
2018-10-21T06:26:21.535Z,10.80
2018-10-21T06:27:25.108Z,10.80
2018-10-21T06:28:28.675Z,10.90
2018-10-21T06:29:32.291Z,10.90
2018-10-21T06:30:35.838Z,11.00
2018-10-21T06:31:39.410Z,11.00
2018-10-21T06:32:42.986Z,11.00
2018-10-21T06:33:46.686Z,11.00
2018-10-21T06:34:50.148Z,11.00
2018-10-21T06:35:53.736Z,11.10
2018-10-21T06:36:57.310Z,11.20
2018-10-21T06:38:00.883Z,11.20
2018-10-21T06:39:05.073Z,11.20
2018-10-21T06:40:10.184Z,11.30
2018-10-21T06:41:13.771Z,11.30
2018-10-21T06:42:17.358Z,11.40
2018-10-21T06:43:21.011Z,11.40
2018-10-21T06:44:24.562Z,11.50
2018-10-21T06:45:28.285Z,11.50
2018-10-21T06:46:31.755Z,11.60
2018-10-21T06:47:35.526Z,11.60
2018-10-21T06:48:39.095Z,11.70
2018-10-21T06:49:42.674Z,11.80
2018-10-21T06:50:46.380Z,11.80
2018-10-21T06:51:50.040Z,11.90
2018-10-21T06:52:53.591Z,11.90
2018-10-21T06:53:57.179Z,11.90
2018-10-21T06:55:00.804Z,12.00
2018-10-21T06:56:04.594Z,12.00
2018-10-21T06:57:08.302Z,12.00
2018-10-21T06:58:11.758Z,12.10
2018-10-21T06:59:15.355Z,12.10
2018-10-21T07:00:18.987Z,12.20
2018-10-21T07:01:22.555Z,12.20
2018-10-21T07:02:26.135Z,12.30
2018-10-21T07:03:29.727Z,12.50
2018-10-21T07:04:33.425Z,12.50
2018-10-21T07:06:44.419Z,12.60
2018-10-21T07:07:48.271Z,12.70
2018-10-21T07:08:53.063Z,12.70
2018-10-21T07:09:56.755Z,12.70
2018-10-21T07:11:00.306Z,12.70
2018-10-21T07:12:03.935Z,12.70
2018-10-21T07:13:07.581Z,12.70
2018-10-21T07:14:11.142Z,12.70
2018-10-21T07:15:14.776Z,12.70
2018-10-21T07:16:18.410Z,12.70
2018-10-21T07:17:21.921Z,12.70
2018-10-21T07:18:25.691Z,12.80
2018-10-21T07:19:29.303Z,12.80
2018-10-21T07:20:32.904Z,12.80
2018-10-21T07:21:36.545Z,12.90
2018-10-21T07:22:40.667Z,13.00
2018-10-21T07:23:44.454Z,13.00
2018-10-21T07:24:48.071Z,13.10
2018-10-21T07:25:51.656Z,13.10
2018-10-21T07:26:55.238Z,13.20
2018-10-21T07:27:58.884Z,13.30
2018-10-21T07:29:02.424Z,13.40
2018-10-21T07:30:07.381Z,13.50
2018-10-21T07:31:10.942Z,13.60
2018-10-21T07:32:14.539Z,13.70
2018-10-21T07:33:18.140Z,13.80
2018-10-21T07:34:21.731Z,13.90
2018-10-21T07:35:25.326Z,14.00
2018-10-21T07:36:29.181Z,14.10
2018-10-21T07:37:32.584Z,14.20
2018-10-21T07:38:36.187Z,14.30
2018-10-21T07:39:39.780Z,14.40
2018-10-21T07:40:43.663Z,14.60
2018-10-21T07:41:47.250Z,14.70
2018-10-21T07:42:50.857Z,14.80
2018-10-21T07:43:54.467Z,14.90
2018-10-21T07:44:58.011Z,15.00
2018-10-21T07:46:01.635Z,15.10
2018-10-21T07:47:05.279Z,15.20
2018-10-21T07:48:08.862Z,15.20
2018-10-21T07:49:12.507Z,15.30
2018-10-21T07:50:16.057Z,15.30
2018-10-21T07:51:19.706Z,15.40
2018-10-21T07:52:23.270Z,15.40
2018-10-21T07:53:26.861Z,15.40
2018-10-21T07:54:30.447Z,15.40
2018-10-21T07:55:34.081Z,15.40
2018-10-21T07:56:37.672Z,15.40
2018-10-21T07:57:41.263Z,15.40
2018-10-21T07:58:44.936Z,15.50
2018-10-21T07:59:49.293Z,15.50
2018-10-21T08:00:52.926Z,15.50
2018-10-21T08:01:56.481Z,15.60
2018-10-21T08:03:00.076Z,15.60
2018-10-21T08:04:03.720Z,15.70
2018-10-21T08:05:11.907Z,15.70
2018-10-21T08:06:32.542Z,15.80
2018-10-21T08:07:47.655Z,15.90
2018-10-21T08:08:51.311Z,15.90
2018-10-21T08:09:54.968Z,15.90
2018-10-21T08:10:58.507Z,16.00
2018-10-21T08:12:02.115Z,16.00
2018-10-21T08:13:05.992Z,16.00
2018-10-21T08:14:09.575Z,16.00
2018-10-21T08:15:13.216Z,16.00
2018-10-21T08:16:16.793Z,16.10
2018-10-21T08:17:20.349Z,16.10
2018-10-21T08:18:23.939Z,16.10
2018-10-21T08:19:27.540Z,16.10
2018-10-21T08:20:31.150Z,16.10
2018-10-21T08:21:34.711Z,16.20
2018-10-21T08:22:38.303Z,16.20
2018-10-21T08:23:41.893Z,16.20
2018-10-21T08:24:45.482Z,16.20
2018-10-21T08:25:50.281Z,16.30
2018-10-21T08:26:53.910Z,16.40
2018-10-21T08:27:57.564Z,16.40
2018-10-21T08:29:01.088Z,16.50
2018-10-21T08:30:04.983Z,16.50
2018-10-21T08:31:08.568Z,16.60
2018-10-21T08:32:12.159Z,16.70
2018-10-21T08:33:15.873Z,16.70
2018-10-21T08:34:19.434Z,16.80
2018-10-21T08:35:23.363Z,16.80
2018-10-21T08:36:26.956Z,16.80
2018-10-21T08:37:30.513Z,16.80
2018-10-21T08:38:34.291Z,16.80
2018-10-21T08:39:37.859Z,16.90
2018-10-21T08:40:41.440Z,16.90
2018-10-21T08:41:45.023Z,16.90
2018-10-21T08:42:48.596Z,17.00
2018-10-21T08:43:52.175Z,17.00
2018-10-21T08:44:55.747Z,17.00
2018-10-21T08:45:59.387Z,17.00
2018-10-21T08:47:02.895Z,17.00
2018-10-21T08:48:06.484Z,17.00
2018-10-21T08:49:10.127Z,17.10
2018-10-21T08:50:14.296Z,17.10
2018-10-21T08:51:17.878Z,17.10
2018-10-21T08:52:21.728Z,17.10
2018-10-21T08:53:25.275Z,17.10
2018-10-21T08:54:28.964Z,17.10
2018-10-21T08:55:32.531Z,17.20
2018-10-21T08:56:36.100Z,17.20
2018-10-21T08:57:40.139Z,17.20
2018-10-21T08:58:43.719Z,17.20
2018-10-21T08:59:47.372Z,17.20
2018-10-21T09:00:50.962Z,17.20
2018-10-21T09:01:54.536Z,17.20
2018-10-21T09:02:58.071Z,17.20
2018-10-21T09:04:01.707Z,17.20
2018-10-21T09:05:06.744Z,17.20
2018-10-21T09:06:10.348Z,17.20
2018-10-21T09:07:13.961Z,17.20
2018-10-21T09:08:17.468Z,17.20
2018-10-21T09:09:21.042Z,17.20
2018-10-21T09:10:24.624Z,17.30
2018-10-21T09:11:28.192Z,17.30
2018-10-21T09:12:31.786Z,17.40
2018-10-21T09:13:35.331Z,17.50
2018-10-21T09:14:38.898Z,17.50
2018-10-21T09:15:42.471Z,17.50
2018-10-21T09:16:46.120Z,17.50
2018-10-21T09:17:49.656Z,17.40
2018-10-21T09:18:53.295Z,17.40
2018-10-21T09:21:04.947Z,17.40
2018-10-21T09:22:08.576Z,17.30
2018-10-21T09:23:12.197Z,17.40
2018-10-21T09:24:15.761Z,17.40
2018-10-21T09:25:19.352Z,17.40
2018-10-21T09:26:22.892Z,17.40
2018-10-21T09:27:26.526Z,17.40
2018-10-21T09:28:30.094Z,17.40
2018-10-21T09:29:33.738Z,17.50
2018-10-21T09:30:37.329Z,17.60
2018-10-21T09:31:40.867Z,17.60
2018-10-21T09:32:44.452Z,17.70
2018-10-21T09:33:48.028Z,17.70
2018-10-21T09:34:51.644Z,17.80
2018-10-21T09:35:55.219Z,17.80
2018-10-21T09:36:58.823Z,18.00
2018-10-21T09:38:02.388Z,18.20
2018-10-21T09:39:08.987Z,18.20
2018-10-21T09:40:15.350Z,18.40
2018-10-21T09:41:18.994Z,18.50
2018-10-21T09:42:22.572Z,18.60
2018-10-21T09:43:26.169Z,18.70
2018-10-21T09:44:29.747Z,18.90
2018-10-21T09:45:33.327Z,19.10
2018-10-21T09:46:36.945Z,19.20
2018-10-21T09:47:40.615Z,19.30
2018-10-21T09:48:44.306Z,19.30
2018-10-21T09:49:47.907Z,19.30
2018-10-21T09:50:51.496Z,19.30
2018-10-21T09:51:55.117Z,19.40
2018-10-21T09:52:58.670Z,19.40
2018-10-21T09:54:02.278Z,19.40
2018-10-21T09:55:11.259Z,19.40
2018-10-21T09:56:14.787Z,19.50
2018-10-21T09:57:18.452Z,19.50
2018-10-21T09:58:22.099Z,19.60
2018-10-21T09:59:25.634Z,19.70
2018-10-21T10:00:34.538Z,19.80
2018-10-21T10:02:45.375Z,19.80
2018-10-21T10:03:49.012Z,19.90
2018-10-21T10:04:52.540Z,20.00
2018-10-21T10:05:56.138Z,20.10
2018-10-21T10:06:59.839Z,20.20
2018-10-21T10:08:03.338Z,20.30
2018-10-21T10:09:09.007Z,20.50
2018-10-21T10:10:12.639Z,20.60
2018-10-21T10:11:16.239Z,20.70
2018-10-21T10:12:19.829Z,20.80
2018-10-21T10:13:23.415Z,20.80
2018-10-21T10:14:27.015Z,20.80
2018-10-21T10:15:30.617Z,20.80
2018-10-21T10:16:34.352Z,20.80
2018-10-21T10:17:38.110Z,20.80
2018-10-21T10:18:41.801Z,20.80
2018-10-21T10:19:45.425Z,20.90
2018-10-21T10:20:49.075Z,20.90
2018-10-21T10:21:52.677Z,20.90
2018-10-21T10:22:56.279Z,20.90
2018-10-21T10:23:59.966Z,20.90
2018-10-21T10:25:03.569Z,20.90
2018-10-21T10:26:07.111Z,21.00
2018-10-21T10:27:10.687Z,21.00
2018-10-21T10:28:14.312Z,21.10
2018-10-21T10:29:17.856Z,21.10
2018-10-21T10:30:21.452Z,21.10
2018-10-21T10:31:25.168Z,21.20
2018-10-21T10:32:28.758Z,21.30
2018-10-21T10:33:32.334Z,21.30
2018-10-21T10:34:35.916Z,21.30
2018-10-21T10:35:39.523Z,21.40
2018-10-21T10:36:43.119Z,21.50
2018-10-21T10:37:46.702Z,21.50
2018-10-21T10:38:50.513Z,21.60
2018-10-21T10:39:54.140Z,21.60
2018-10-21T10:40:57.695Z,21.60
2018-10-21T10:42:01.368Z,21.70
2018-10-21T10:43:04.863Z,21.70
2018-10-21T10:44:08.427Z,21.80
2018-10-21T10:45:12.011Z,21.90
2018-10-21T10:46:15.666Z,21.90
2018-10-21T10:47:19.283Z,21.90
2018-10-21T10:48:22.872Z,22.00
2018-10-21T10:49:26.567Z,22.10
2018-10-21T10:50:30.160Z,22.20
2018-10-21T10:51:33.751Z,22.30
2018-10-21T10:52:37.690Z,22.30
2018-10-21T10:53:41.376Z,22.30
2018-10-21T10:54:45.027Z,22.40
2018-10-21T10:55:51.507Z,22.40
2018-10-21T10:56:55.284Z,22.30
2018-10-21T10:57:58.910Z,22.20
2018-10-21T10:59:02.467Z,22.00
2018-10-21T11:00:08.182Z,21.90
2018-10-21T11:01:11.666Z,21.90
2018-10-21T11:02:15.185Z,21.80
2018-10-21T11:03:18.751Z,21.80
2018-10-21T11:04:22.386Z,21.80
2018-10-21T11:05:25.979Z,21.90
2018-10-21T11:06:29.552Z,22.00
2018-10-21T11:07:33.135Z,22.10
2018-10-21T11:08:36.717Z,22.20
2018-10-21T11:09:40.319Z,22.20
2018-10-21T11:10:43.915Z,22.30
2018-10-21T11:11:47.505Z,22.30
2018-10-21T11:12:51.188Z,22.40
2018-10-21T11:13:54.748Z,22.40
2018-10-21T11:14:58.335Z,22.50
2018-10-21T11:16:02.029Z,22.50
2018-10-21T11:17:05.538Z,22.50
2018-10-21T11:18:09.141Z,22.50
2018-10-21T11:19:12.788Z,22.60
2018-10-21T11:20:16.323Z,22.70
2018-10-21T11:21:19.910Z,22.70
2018-10-21T11:22:23.520Z,22.80
2018-10-21T11:23:27.045Z,22.80
2018-10-21T11:24:30.628Z,22.80
2018-10-21T11:25:34.228Z,22.80
2018-10-21T11:26:37.807Z,22.80
2018-10-21T11:27:41.410Z,22.80
2018-10-21T11:28:45.045Z,22.80
2018-10-21T11:29:49.009Z,22.70
2018-10-21T11:30:52.616Z,22.60
2018-10-21T11:31:56.228Z,22.60
2018-10-21T11:32:59.850Z,22.50
2018-10-21T11:34:03.469Z,22.40
2018-10-21T11:35:07.143Z,22.30
2018-10-21T11:36:10.752Z,22.20
2018-10-21T11:37:14.456Z,22.30
2018-10-21T11:38:18.077Z,22.20
2018-10-21T11:39:21.645Z,22.20
2018-10-21T11:40:25.288Z,22.20
2018-10-21T11:41:28.866Z,22.10
2018-10-21T11:42:32.459Z,22.10
2018-10-21T11:43:36.048Z,22.00
2018-10-21T11:44:39.629Z,22.00
2018-10-21T11:45:43.559Z,22.00
2018-10-21T11:46:47.067Z,22.00
2018-10-21T11:47:50.695Z,22.00
2018-10-21T11:48:54.238Z,21.90
2018-10-21T11:49:57.816Z,21.90
2018-10-21T11:51:01.390Z,21.90
2018-10-21T11:52:05.188Z,21.80
2018-10-21T11:53:08.719Z,21.70
2018-10-21T11:54:12.315Z,21.70
2018-10-21T11:55:15.987Z,21.60
2018-10-21T11:56:19.622Z,21.50
2018-10-21T11:57:23.463Z,21.50
2018-10-21T11:58:27.039Z,21.40
2018-10-21T11:59:30.614Z,21.30
2018-10-21T12:00:34.208Z,21.30
2018-10-21T12:01:37.791Z,21.20
2018-10-21T12:02:41.364Z,21.10
2018-10-21T12:03:45.831Z,21.10
2018-10-21T12:04:49.459Z,21.10
2018-10-21T12:05:53.078Z,21.10
2018-10-21T12:06:56.733Z,21.10
2018-10-21T12:08:00.262Z,21.10
2018-10-21T12:09:06.522Z,21.10
2018-10-21T12:10:10.221Z,21.10
2018-10-21T12:11:13.686Z,21.10
2018-10-21T12:12:17.323Z,21.00
2018-10-21T12:13:20.899Z,21.00
2018-10-21T12:14:24.496Z,21.00
2018-10-21T12:15:28.139Z,21.00
2018-10-21T12:16:31.703Z,21.10
2018-10-21T12:17:35.336Z,21.10
2018-10-21T12:18:39.035Z,21.10
2018-10-21T12:19:42.658Z,21.10
2018-10-21T12:20:46.187Z,21.20
2018-10-21T12:21:49.823Z,21.20
2018-10-21T12:22:53.455Z,21.20
2018-10-21T12:23:57.054Z,21.10
2018-10-21T12:25:00.649Z,21.10
2018-10-21T12:26:04.445Z,21.00
2018-10-21T12:27:08.215Z,21.00
2018-10-21T12:28:11.848Z,20.90
2018-10-21T12:29:15.541Z,20.90
2018-10-21T12:30:19.132Z,20.80
2018-10-21T12:31:22.735Z,20.80
2018-10-21T12:32:26.336Z,20.80
2018-10-21T12:33:32.932Z,20.80
2018-10-21T12:34:36.607Z,20.80
2018-10-21T12:35:40.170Z,20.80
2018-10-21T12:36:43.790Z,20.80
2018-10-21T12:37:47.441Z,20.80
2018-10-21T12:38:51.077Z,20.70
2018-10-21T12:39:54.725Z,20.80
2018-10-21T12:40:58.309Z,20.70
2018-10-21T12:42:01.868Z,20.70
2018-10-21T12:43:05.624Z,20.70
2018-10-21T12:44:09.231Z,20.70
2018-10-21T12:45:12.895Z,20.70
2018-10-21T12:46:16.520Z,20.60
2018-10-21T12:47:20.091Z,20.60
2018-10-21T12:48:23.727Z,20.50
2018-10-21T12:49:27.441Z,20.40
2018-10-21T12:50:31.018Z,20.30
2018-10-21T12:51:34.915Z,20.20
2018-10-21T12:52:38.519Z,20.20
2018-10-21T12:53:42.132Z,20.10
2018-10-21T12:54:45.739Z,20.10
2018-10-21T12:55:50.266Z,20.00
2018-10-21T12:56:53.899Z,19.90
2018-10-21T12:57:57.573Z,19.80
2018-10-21T12:59:01.139Z,19.80
2018-10-21T13:00:04.867Z,19.80
2018-10-21T13:01:08.983Z,19.80
2018-10-21T13:02:12.683Z,19.70
2018-10-21T13:03:16.423Z,19.70
2018-10-21T13:04:20.200Z,19.70
2018-10-21T13:05:23.752Z,19.60
2018-10-21T13:06:27.411Z,19.60
2018-10-21T13:07:31.235Z,19.60
2018-10-21T13:08:34.786Z,19.60
2018-10-21T13:09:38.588Z,19.50
2018-10-21T13:10:42.179Z,19.50
2018-10-21T13:11:45.785Z,19.50
2018-10-21T13:12:49.527Z,19.50
2018-10-21T13:13:53.172Z,19.40
2018-10-21T13:14:56.776Z,19.40
2018-10-21T13:16:00.379Z,19.30
2018-10-21T13:17:04.342Z,19.20
2018-10-21T13:18:07.931Z,19.20
2018-10-21T13:19:11.690Z,19.10
2018-10-21T13:20:15.188Z,19.10
2018-10-21T13:21:18.802Z,19.00
2018-10-21T13:22:22.504Z,19.00
2018-10-21T13:23:26.103Z,19.00
2018-10-21T13:24:29.690Z,18.90
2018-10-21T13:25:33.297Z,18.90
2018-10-21T13:26:36.873Z,18.90
2018-10-21T13:27:40.446Z,18.80
2018-10-21T13:28:44.103Z,18.80
2018-10-21T13:29:47.624Z,18.90
2018-10-21T13:30:51.218Z,18.80
2018-10-21T13:31:54.848Z,18.80
2018-10-21T13:32:58.442Z,18.80
2018-10-21T13:34:02.129Z,18.70
2018-10-21T13:35:06.330Z,18.70
2018-10-21T13:36:09.928Z,18.70
2018-10-21T13:37:13.582Z,18.70
2018-10-21T13:38:17.256Z,18.70
2018-10-21T13:39:20.832Z,18.60
2018-10-21T13:40:24.821Z,18.60
2018-10-21T13:41:28.345Z,18.50
2018-10-21T13:42:32.016Z,18.40
2018-10-21T13:43:35.603Z,18.40
2018-10-21T13:44:39.243Z,18.40
2018-10-21T13:45:43.029Z,18.30
2018-10-21T13:46:46.596Z,18.30